createdAt,value
2023-04-15T00:00:00.895Z,93409.00
2023-04-15T00:01:00.870Z,93409.00
2023-04-15T00:02:00.976Z,93409.00
2023-04-15T00:03:00.975Z,93409.00
2023-04-15T00:04:00.933Z,93409.00
2023-04-15T00:05:00.843Z,93411.00
2023-04-15T00:06:00.841Z,93409.00
2023-04-15T00:07:00.816Z,93411.00
2023-04-15T00:08:00.830Z,93413.00
2023-04-15T00:09:01.137Z,93413.00
2023-04-15T00:10:00.854Z,93413.00
2023-04-15T00:11:00.871Z,93413.00
2023-04-15T00:12:00.879Z,93413.00
2023-04-15T00:13:00.898Z,93415.00
2023-04-15T00:14:00.941Z,93411.00
2023-04-15T00:15:00.944Z,93413.00
2023-04-15T00:16:00.987Z,93411.00
2023-04-15T00:17:01.050Z,93413.00
2023-04-15T00:18:01.090Z,93413.00
2023-04-15T00:19:01.271Z,93413.00
2023-04-15T00:20:01.047Z,93415.00
2023-04-15T00:21:01.098Z,93415.00
2023-04-15T00:22:01.180Z,93419.00
2023-04-15T00:23:01.115Z,93419.00
2023-04-15T00:24:01.143Z,93417.00
2023-04-15T00:25:01.185Z,93417.00
2023-04-15T00:26:01.186Z,93417.00
2023-04-15T00:27:01.223Z,93415.00
2023-04-15T00:28:01.223Z,93413.00
2023-04-15T00:29:01.540Z,93417.00
2023-04-15T00:30:01.297Z,93415.00
2023-04-15T00:31:01.312Z,93415.00
2023-04-15T00:32:01.377Z,93411.00
2023-04-15T00:33:01.402Z,93413.00
2023-04-15T00:34:01.367Z,93417.00
2023-04-15T00:35:01.374Z,93415.00
2023-04-15T00:36:01.399Z,93413.00
2023-04-15T00:37:01.418Z,93415.00
2023-04-15T00:38:01.483Z,93411.00
2023-04-15T00:39:01.641Z,93409.00
2023-04-15T00:40:01.745Z,93413.00
2023-04-15T00:41:01.505Z,93413.00
2023-04-15T00:42:01.536Z,93411.00
2023-04-15T00:43:01.561Z,93409.00
2023-04-15T00:44:01.577Z,93411.00
2023-04-15T00:45:01.603Z,93407.00
2023-04-15T00:46:01.639Z,93413.00
2023-04-15T00:47:01.626Z,93411.00
2023-04-15T00:48:01.667Z,93407.00
2023-04-15T00:49:01.873Z,93405.00
2023-04-15T00:50:01.738Z,93405.00
2023-04-15T00:51:01.724Z,93409.00
2023-04-15T00:52:01.728Z,93403.00
2023-04-15T00:53:01.762Z,93405.00
2023-04-15T00:54:01.783Z,93403.00
2023-04-15T00:55:01.894Z,93403.00
2023-04-15T00:56:01.823Z,93399.00
2023-04-15T00:57:01.975Z,93401.00
2023-04-15T00:58:01.864Z,93401.00
2023-04-15T00:59:02.109Z,93403.00
2023-04-15T01:00:01.905Z,93403.00
2023-04-15T01:01:01.969Z,93403.00
2023-04-15T01:02:01.988Z,93403.00
2023-04-15T01:03:02.177Z,93403.00
2023-04-15T01:04:02.148Z,93401.00
2023-04-15T01:05:01.998Z,93403.00
2023-04-15T01:06:03.889Z,93403.00
2023-04-15T01:07:02.050Z,93399.00
2023-04-15T01:08:02.044Z,93401.00
2023-04-15T01:09:02.256Z,93399.00
2023-04-15T01:10:02.159Z,93403.00
2023-04-15T01:11:02.156Z,93403.00
2023-04-15T01:12:02.123Z,93403.00
2023-04-15T01:13:02.163Z,93403.00
2023-04-15T01:14:02.176Z,93405.00
2023-04-15T01:15:02.232Z,93405.00
2023-04-15T01:16:02.287Z,93405.00
2023-04-15T01:17:02.252Z,93405.00
2023-04-15T01:18:02.303Z,93405.00
2023-04-15T01:19:02.630Z,93407.00
2023-04-15T01:20:02.277Z,93407.00
2023-04-15T01:21:02.302Z,93405.00
2023-04-15T01:22:02.320Z,93407.00
2023-04-15T01:23:02.359Z,93407.00
2023-04-15T01:24:02.375Z,93407.00
2023-04-15T01:25:02.442Z,93407.00
2023-04-15T01:26:02.437Z,93407.00
2023-04-15T01:27:02.457Z,93405.00
2023-04-15T01:28:02.464Z,93405.00
2023-04-15T01:29:02.732Z,93405.00
2023-04-15T01:30:02.531Z,93407.00
2023-04-15T01:31:02.569Z,93409.00
2023-04-15T01:32:02.550Z,93405.00
2023-04-15T01:33:02.609Z,93405.00
2023-04-15T01:34:02.610Z,93407.00
2023-04-15T01:35:02.637Z,93407.00
2023-04-15T01:36:02.648Z,93407.00
2023-04-15T01:37:02.670Z,93407.00
2023-04-15T01:38:02.704Z,93407.00
2023-04-15T01:39:02.851Z,93407.00
2023-04-15T01:40:02.738Z,93409.00
2023-04-15T01:41:02.747Z,93409.00
2023-04-15T01:42:02.801Z,93407.00
2023-04-15T01:43:02.798Z,93409.00
2023-04-15T01:44:02.816Z,93407.00
2023-04-15T01:45:02.841Z,93409.00
2023-04-15T01:46:02.848Z,93405.00
2023-04-15T01:47:02.920Z,93405.00
2023-04-15T01:48:02.922Z,93407.00
2023-04-15T01:49:03.010Z,93405.00
2023-04-15T01:50:02.951Z,93403.00
2023-04-15T01:51:02.972Z,93403.00
2023-04-15T01:52:02.982Z,93401.00
2023-04-15T01:53:03.014Z,93403.00
2023-04-15T01:54:03.029Z,93401.00
2023-04-15T01:55:03.042Z,93401.00
2023-04-15T01:56:03.059Z,93401.00
2023-04-15T01:57:03.117Z,93405.00
2023-04-15T01:58:03.123Z,93407.00
2023-04-15T01:59:03.186Z,93407.00
2023-04-15T02:00:03.224Z,93409.00
2023-04-15T02:01:03.314Z,93409.00
2023-04-15T02:02:03.227Z,93409.00
2023-04-15T02:03:03.377Z,93409.00
2023-04-15T02:04:03.341Z,93407.00
2023-04-15T02:05:03.263Z,93407.00
2023-04-15T02:06:03.301Z,93405.00
2023-04-15T02:07:03.325Z,93403.00
2023-04-15T02:08:03.321Z,93407.00
2023-04-15T02:09:03.462Z,93405.00
2023-04-15T02:10:03.381Z,93405.00
2023-04-15T02:11:03.415Z,93405.00
2023-04-15T02:12:03.416Z,93407.00
2023-04-15T02:13:03.442Z,93403.00
2023-04-15T02:14:03.474Z,93407.00
2023-04-15T02:15:03.501Z,93405.00
2023-04-15T02:16:03.614Z,93401.00
2023-04-15T02:17:03.555Z,93401.00
2023-04-15T02:18:03.611Z,93403.00
2023-04-15T02:19:03.594Z,93403.00
2023-04-15T02:20:03.622Z,93403.00
2023-04-15T02:21:03.621Z,93403.00
2023-04-15T02:22:03.651Z,93401.00
2023-04-15T02:23:03.669Z,93403.00
2023-04-15T02:24:03.702Z,93401.00
2023-04-15T02:25:03.722Z,93403.00
2023-04-15T02:26:03.739Z,93403.00
2023-04-15T02:27:03.778Z,93405.00
2023-04-15T02:28:03.780Z,93403.00
2023-04-15T02:29:03.809Z,93403.00
2023-04-15T02:30:03.850Z,93407.00
2023-04-15T02:31:03.846Z,93405.00
2023-04-15T02:32:03.926Z,93407.00
2023-04-15T02:33:03.930Z,93405.00
2023-04-15T02:34:03.936Z,93405.00
2023-04-15T02:35:03.988Z,93405.00
2023-04-15T02:36:03.982Z,93409.00
2023-04-15T02:37:04.045Z,93405.00
2023-04-15T02:38:04.005Z,93409.00
2023-04-15T02:39:04.227Z,93405.00
2023-04-15T02:40:04.101Z,93405.00
2023-04-15T02:41:04.086Z,93405.00
2023-04-15T02:42:04.140Z,93407.00
2023-04-15T02:43:04.136Z,93409.00
2023-04-15T02:44:04.158Z,93407.00
2023-04-15T02:45:04.180Z,93411.00
2023-04-15T02:46:04.228Z,93411.00
2023-04-15T02:47:04.237Z,93411.00
2023-04-15T02:48:04.255Z,93409.00
2023-04-15T02:49:04.265Z,93413.00
2023-04-15T02:50:04.316Z,93411.00
2023-04-15T02:51:04.323Z,93409.00
2023-04-15T02:52:04.334Z,93411.00
2023-04-15T02:53:04.359Z,93413.00
2023-04-15T02:54:04.391Z,93413.00
2023-04-15T02:55:04.417Z,93409.00
2023-04-15T02:56:04.445Z,93409.00
2023-04-15T02:57:04.459Z,93407.00
2023-04-15T02:58:04.497Z,93407.00
2023-04-15T02:59:04.524Z,93407.00
2023-04-15T03:00:04.553Z,93407.00
2023-04-15T03:01:04.570Z,93405.00
2023-04-15T03:02:04.676Z,93407.00
2023-04-15T03:03:04.855Z,93409.00
2023-04-15T03:04:04.756Z,93405.00
2023-04-15T03:05:04.688Z,93407.00
2023-04-15T03:06:04.701Z,93407.00
2023-04-15T03:07:04.707Z,93405.00
2023-04-15T03:08:04.735Z,93405.00
2023-04-15T03:09:04.770Z,93407.00
2023-04-15T03:10:04.824Z,93401.00
2023-04-15T03:11:04.818Z,93403.00
2023-04-15T03:12:04.849Z,93403.00
2023-04-15T03:13:04.883Z,93405.00
2023-04-15T03:14:04.906Z,93403.00
2023-04-15T03:15:04.923Z,93403.00
2023-04-15T03:16:04.946Z,93403.00
2023-04-15T03:17:04.961Z,93405.00
2023-04-15T03:18:05.012Z,93403.00
2023-04-15T03:19:05.019Z,93401.00
2023-04-15T03:20:05.072Z,93401.00
2023-04-15T03:21:05.073Z,93401.00
2023-04-15T03:22:05.070Z,93401.00
2023-04-15T03:23:05.104Z,93401.00
2023-04-15T03:24:05.129Z,93401.00
2023-04-15T03:25:05.153Z,93407.00
2023-04-15T03:26:05.171Z,93403.00
2023-04-15T03:27:05.195Z,93405.00
2023-04-15T03:28:05.214Z,93405.00
2023-04-15T03:29:05.232Z,93405.00
2023-04-15T03:30:05.268Z,93401.00
2023-04-15T03:31:05.271Z,93401.00
2023-04-15T03:32:05.285Z,93401.00
2023-04-15T03:33:05.310Z,93401.00
2023-04-15T03:34:05.338Z,93401.00
2023-04-15T03:35:05.377Z,93401.00
2023-04-15T03:36:05.414Z,93403.00
2023-04-15T03:37:05.410Z,93401.00
2023-04-15T03:38:05.440Z,93403.00
2023-04-15T03:39:05.466Z,93403.00
2023-04-15T03:40:05.536Z,93405.00
2023-04-15T03:41:05.513Z,93403.00
2023-04-15T03:42:05.557Z,93403.00
2023-04-15T03:43:05.578Z,93403.00
2023-04-15T03:44:05.584Z,93403.00
2023-04-15T03:45:05.605Z,93401.00
2023-04-15T03:46:05.665Z,93399.00
2023-04-15T03:47:05.658Z,93399.00
2023-04-15T03:48:16.693Z,93397.00
2023-04-15T03:49:06.701Z,93397.00
2023-04-15T03:50:05.664Z,93397.00
2023-04-15T03:51:05.671Z,93399.00
2023-04-15T03:52:05.669Z,93397.00
2023-04-15T03:53:05.662Z,93393.00
2023-04-15T03:54:05.663Z,93393.00
2023-04-15T03:55:05.633Z,93397.00
2023-04-15T03:56:05.640Z,93391.00
2023-04-15T03:57:05.646Z,93393.00
2023-04-15T03:58:05.628Z,93393.00
2023-04-15T03:59:05.602Z,93388.00
2023-04-15T04:00:05.615Z,93391.00
2023-04-15T04:01:05.592Z,93393.00
2023-04-15T04:02:05.740Z,93388.00
2023-04-15T04:03:05.725Z,93393.00
2023-04-15T04:04:05.663Z,93388.00
2023-04-15T04:05:05.636Z,93389.00
2023-04-15T04:06:05.643Z,93388.00
2023-04-15T04:07:05.689Z,93389.00
2023-04-15T04:08:05.707Z,93389.00
2023-04-15T04:09:05.723Z,93389.00
2023-04-15T04:10:05.762Z,93391.00
2023-04-15T04:11:05.785Z,93397.00
2023-04-15T04:12:05.816Z,93391.00
2023-04-15T04:13:05.839Z,93395.00
2023-04-15T04:14:05.854Z,93391.00
2023-04-15T04:15:05.894Z,93389.00
2023-04-15T04:16:06.055Z,93393.00
2023-04-15T04:17:06.105Z,93397.00
2023-04-15T04:18:05.971Z,93391.00
2023-04-15T04:19:05.986Z,93395.00
2023-04-15T04:20:06.026Z,93401.00
2023-04-15T04:21:06.048Z,93399.00
2023-04-15T04:22:06.078Z,93405.00
2023-04-15T04:23:06.113Z,93407.00
2023-04-15T04:24:06.143Z,93401.00
2023-04-15T04:25:06.163Z,93407.00
2023-04-15T04:26:06.192Z,93409.00
2023-04-15T04:27:06.249Z,93401.00
2023-04-15T04:28:06.261Z,93399.00
2023-04-15T04:29:06.307Z,93399.00
2023-04-15T04:30:06.321Z,93401.00
2023-04-15T04:31:06.352Z,93401.00
2023-04-15T04:32:06.455Z,93401.00
2023-04-15T04:33:06.450Z,93405.00
2023-04-15T04:34:06.452Z,93403.00
2023-04-15T04:35:06.496Z,93405.00
2023-04-15T04:36:06.554Z,93407.00
2023-04-15T04:37:06.567Z,93407.00
2023-04-15T04:38:06.614Z,93409.00
2023-04-15T04:39:06.641Z,93409.00
2023-04-15T04:40:06.683Z,93413.00
2023-04-15T04:41:06.695Z,93417.00
2023-04-15T04:42:06.744Z,93417.00
2023-04-15T04:43:06.777Z,93417.00
2023-04-15T04:44:06.804Z,93419.00
2023-04-15T04:45:06.824Z,93425.00
2023-04-15T04:46:06.920Z,93427.00
2023-04-15T04:47:06.884Z,93427.00
2023-04-15T04:48:07.189Z,93425.00
2023-04-15T04:49:06.964Z,93419.00
2023-04-15T04:50:06.998Z,93425.00
2023-04-15T04:51:07.026Z,93427.00
2023-04-15T04:52:07.043Z,93429.00
2023-04-15T04:53:07.062Z,93431.00
2023-04-15T04:54:07.097Z,93431.00
2023-04-15T04:55:07.143Z,93433.00
2023-04-15T04:56:07.168Z,93435.00
2023-04-15T04:57:07.221Z,93433.00
2023-04-15T04:58:07.242Z,93433.00
2023-04-15T04:59:07.294Z,93436.00
2023-04-15T05:00:07.297Z,93435.00
2023-04-15T05:01:07.401Z,93433.00
2023-04-15T05:02:07.418Z,93436.00
2023-04-15T05:03:07.545Z,93435.00
2023-04-15T05:04:07.532Z,93440.00
2023-04-15T05:05:07.484Z,93440.00
2023-04-15T05:06:07.523Z,93438.00
2023-04-15T05:07:07.548Z,93440.00
2023-04-15T05:08:07.588Z,93442.00
2023-04-15T05:09:07.599Z,93442.00
2023-04-15T05:10:07.651Z,93442.00
2023-04-15T05:11:07.688Z,93444.00
2023-04-15T05:12:07.680Z,93444.00
2023-04-15T05:13:07.733Z,93444.00
2023-04-15T05:14:07.758Z,93444.00
2023-04-15T05:15:07.786Z,93446.00
2023-04-15T05:16:07.891Z,93446.00
2023-04-15T05:17:07.839Z,93446.00
2023-04-15T05:18:07.897Z,93450.00
2023-04-15T05:19:07.910Z,93444.00
2023-04-15T05:20:07.947Z,93450.00
2023-04-15T05:21:07.989Z,93450.00
2023-04-15T05:22:08.017Z,93450.00
2023-04-15T05:23:08.026Z,93450.00
2023-04-15T05:24:08.079Z,93450.00
2023-04-15T05:25:08.095Z,93450.00
2023-04-15T05:26:08.139Z,93450.00
2023-04-15T05:27:08.141Z,93452.00
2023-04-15T05:28:08.172Z,93450.00
2023-04-15T05:29:08.213Z,93450.00
2023-04-15T05:30:08.262Z,93450.00
2023-04-15T05:31:08.309Z,93450.00
2023-04-15T05:32:08.305Z,93452.00
2023-04-15T05:33:08.324Z,93452.00
2023-04-15T05:34:08.369Z,93452.00
2023-04-15T05:35:08.404Z,93456.00
2023-04-15T05:36:08.436Z,93456.00
2023-04-15T05:37:08.480Z,93456.00
2023-04-15T05:38:08.479Z,93456.00
2023-04-15T05:39:08.522Z,93456.00
2023-04-15T05:40:08.556Z,93458.00
2023-04-15T05:41:08.572Z,93458.00
2023-04-15T05:42:08.716Z,93456.00
2023-04-15T05:43:08.649Z,93458.00
2023-04-15T05:44:08.688Z,93456.00
2023-04-15T05:45:08.683Z,93456.00
2023-04-15T05:46:08.804Z,93456.00
2023-04-15T05:47:08.764Z,93454.00
2023-04-15T05:48:08.771Z,93456.00
2023-04-15T05:49:08.828Z,93460.00
2023-04-15T05:50:08.819Z,93458.00
2023-04-15T05:51:08.862Z,93458.00
2023-04-15T05:52:08.869Z,93460.00
2023-04-15T05:53:08.913Z,93454.00
2023-04-15T05:54:08.914Z,93456.00
2023-04-15T05:55:08.960Z,93456.00
2023-04-15T05:56:09.007Z,93460.00
2023-04-15T05:57:09.049Z,93460.00
2023-04-15T05:58:09.014Z,93460.00
2023-04-15T05:59:09.057Z,93460.00
2023-04-15T06:00:09.070Z,93458.00
2023-04-15T06:01:09.128Z,93460.00
2023-04-15T06:02:09.173Z,93462.00
2023-04-15T06:03:09.213Z,93464.00
2023-04-15T06:04:09.280Z,93464.00
2023-04-15T06:05:09.450Z,93468.00
2023-04-15T06:06:09.261Z,93468.00
2023-04-15T06:07:09.271Z,93470.00
2023-04-15T06:08:09.292Z,93466.00
2023-04-15T06:09:09.334Z,93470.00
2023-04-15T06:10:09.346Z,93470.00
2023-04-15T06:11:09.371Z,93472.00
2023-04-15T06:12:09.416Z,93474.00
2023-04-15T06:13:09.433Z,93474.00
2023-04-15T06:14:09.426Z,93474.00
2023-04-15T06:15:09.466Z,93474.00
2023-04-15T06:16:09.511Z,93476.00
2023-04-15T06:17:09.501Z,93474.00
2023-04-15T06:18:09.549Z,93472.00
2023-04-15T06:19:09.712Z,93474.00
2023-04-15T06:20:09.622Z,93472.00
2023-04-15T06:21:09.639Z,93474.00
2023-04-15T06:22:09.635Z,93470.00
2023-04-15T06:23:09.646Z,93470.00
2023-04-15T06:24:09.684Z,93470.00
2023-04-15T06:25:09.718Z,93468.00
2023-04-15T06:26:09.733Z,93466.00
2023-04-15T06:27:09.749Z,93470.00
2023-04-15T06:28:09.765Z,93468.00
2023-04-15T06:29:09.796Z,93468.00
2023-04-15T06:30:09.834Z,93466.00
2023-04-15T06:31:09.866Z,93468.00
2023-04-15T06:32:09.889Z,93468.00
2023-04-15T06:33:09.896Z,93470.00
2023-04-15T06:34:09.924Z,93468.00
2023-04-15T06:35:09.939Z,93468.00
2023-04-15T06:36:09.957Z,93466.00
2023-04-15T06:37:10.002Z,93466.00
2023-04-15T06:38:10.038Z,93468.00
2023-04-15T06:39:10.041Z,93462.00
2023-04-15T06:40:10.074Z,93466.00
2023-04-15T06:41:10.067Z,93468.00
2023-04-15T06:42:10.095Z,93468.00
2023-04-15T06:43:10.134Z,93468.00
2023-04-15T06:44:10.148Z,93468.00
2023-04-15T06:45:10.164Z,93472.00
2023-04-15T06:46:10.261Z,93470.00
2023-04-15T06:47:10.227Z,93466.00
2023-04-15T06:48:10.275Z,93466.00
2023-04-15T06:49:10.270Z,93468.00
2023-04-15T06:50:10.289Z,93470.00
2023-04-15T06:51:10.329Z,93466.00
2023-04-15T06:52:10.386Z,93468.00
2023-04-15T06:53:10.351Z,93470.00
2023-04-15T06:54:10.398Z,93468.00
2023-04-15T06:55:10.381Z,93466.00
2023-04-15T06:56:10.399Z,93466.00
2023-04-15T06:57:10.462Z,93466.00
2023-04-15T06:58:10.433Z,93470.00
2023-04-15T06:59:10.465Z,93466.00
2023-04-15T07:00:10.502Z,93466.00
2023-04-15T07:01:10.556Z,93464.00
2023-04-15T07:02:10.551Z,93464.00
2023-04-15T07:03:10.563Z,93462.00
2023-04-15T07:04:10.575Z,93462.00
2023-04-15T07:05:10.597Z,93464.00
2023-04-15T07:06:10.617Z,93462.00
2023-04-15T07:07:10.611Z,93460.00
2023-04-15T07:08:10.635Z,93460.00
2023-04-15T07:09:10.672Z,93458.00
2023-04-15T07:10:10.688Z,93456.00
2023-04-15T07:11:10.706Z,93460.00
2023-04-15T07:12:10.742Z,93454.00
2023-04-15T07:13:10.765Z,93454.00
2023-04-15T07:14:10.774Z,93454.00
2023-04-15T07:15:10.818Z,93456.00
2023-04-15T07:16:10.882Z,93452.00
2023-04-15T07:17:10.862Z,93452.00
2023-04-15T07:18:10.891Z,93450.00
2023-04-15T07:19:10.915Z,93450.00
2023-04-15T07:20:10.935Z,93450.00
2023-04-15T07:21:10.957Z,93450.00
2023-04-15T07:22:10.971Z,93448.00
2023-04-15T07:23:10.995Z,93448.00
2023-04-15T07:24:11.028Z,93448.00
2023-04-15T07:25:11.081Z,93446.00
2023-04-15T07:26:11.093Z,93446.00
2023-04-15T07:27:11.100Z,93448.00
2023-04-15T07:28:11.145Z,93446.00
2023-04-15T07:29:11.146Z,93446.00
2023-04-15T07:30:11.180Z,93444.00
2023-04-15T07:31:11.288Z,93444.00
2023-04-15T07:32:11.228Z,93442.00
2023-04-15T07:33:11.239Z,93438.00
2023-04-15T07:34:11.257Z,93442.00
2023-04-15T07:35:11.274Z,93442.00
2023-04-15T07:36:11.306Z,93442.00
2023-04-15T07:37:11.322Z,93442.00
2023-04-15T07:38:11.317Z,93442.00
2023-04-15T07:39:11.338Z,93442.00
2023-04-15T07:40:11.362Z,93444.00
2023-04-15T07:41:11.377Z,93440.00
2023-04-15T07:42:11.409Z,93438.00
2023-04-15T07:43:11.425Z,93436.00
2023-04-15T07:44:11.433Z,93436.00
2023-04-15T07:45:11.457Z,93435.00
2023-04-15T07:46:11.500Z,93435.00
2023-04-15T07:47:11.497Z,93433.00
2023-04-15T07:48:11.522Z,93431.00
2023-04-15T07:49:11.511Z,93433.00
2023-04-15T07:50:11.580Z,93429.00
2023-04-15T07:51:11.523Z,93429.00
2023-04-15T07:52:11.581Z,93429.00
2023-04-15T07:53:11.557Z,93427.00
2023-04-15T07:54:11.583Z,93427.00
2023-04-15T07:55:11.576Z,93431.00
2023-04-15T07:56:11.599Z,93427.00
2023-04-15T07:57:11.594Z,93425.00
2023-04-15T07:58:11.626Z,93427.00
2023-04-15T07:59:11.650Z,93423.00
2023-04-15T08:00:11.647Z,93423.00
2023-04-15T08:01:11.656Z,93419.00
2023-04-15T08:02:11.728Z,93419.00
2023-04-15T08:03:11.811Z,93419.00
2023-04-15T08:04:11.894Z,93421.00
2023-04-15T08:05:11.710Z,93419.00
2023-04-15T08:06:11.659Z,93425.00
2023-04-15T08:07:11.662Z,93423.00
2023-04-15T08:08:11.677Z,93419.00
2023-04-15T08:09:11.686Z,93417.00
2023-04-15T08:10:11.688Z,93421.00
2023-04-15T08:11:11.670Z,93417.00
2023-04-15T08:12:11.669Z,93419.00
2023-04-15T08:13:11.686Z,93415.00
2023-04-15T08:14:11.697Z,93419.00
2023-04-15T08:15:11.702Z,93419.00
2023-04-15T08:16:11.757Z,93419.00
2023-04-15T08:17:11.689Z,93417.00
2023-04-15T08:18:11.703Z,93417.00
2023-04-15T08:19:11.705Z,93415.00
2023-04-15T08:20:11.682Z,93417.00
2023-04-15T08:21:11.698Z,93415.00
2023-04-15T08:22:16.038Z,93417.00
2023-04-15T08:23:12.685Z,93411.00
2023-04-15T08:24:11.688Z,93413.00
2023-04-15T08:25:11.692Z,93413.00
2023-04-15T08:26:11.669Z,93417.00
2023-04-15T08:27:11.670Z,93413.00
2023-04-15T08:28:11.652Z,93413.00
2023-04-15T08:29:11.647Z,93413.00
2023-04-15T08:30:11.645Z,93415.00
2023-04-15T08:31:11.646Z,93415.00
2023-04-15T08:32:11.628Z,93413.00
2023-04-15T08:33:11.634Z,93413.00
2023-04-15T08:34:11.600Z,93411.00
2023-04-15T08:35:11.607Z,93409.00
2023-04-15T08:36:11.595Z,93411.00
2023-04-15T08:37:12.806Z,93409.00
2023-04-15T08:38:11.585Z,93405.00
2023-04-15T08:39:11.593Z,93401.00
2023-04-15T08:40:11.593Z,93403.00
2023-04-15T08:41:11.570Z,93399.00
2023-04-15T08:42:11.587Z,93399.00
2023-04-15T08:43:11.630Z,93397.00
2023-04-15T08:44:11.658Z,93397.00
2023-04-15T08:45:11.736Z,93399.00
2023-04-15T08:46:11.710Z,93399.00
2023-04-15T08:47:11.754Z,93399.00
2023-04-15T08:48:11.822Z,93395.00
2023-04-15T08:49:11.861Z,93395.00
2023-04-15T08:50:11.901Z,93391.00
2023-04-15T08:51:11.994Z,93389.00
2023-04-15T08:52:12.034Z,93389.00
2023-04-15T08:53:12.113Z,93389.00
2023-04-15T08:54:12.155Z,93388.00
2023-04-15T08:55:12.225Z,93386.00
2023-04-15T08:56:12.271Z,93384.00
2023-04-15T08:57:12.349Z,93382.00
2023-04-15T08:58:12.390Z,93386.00
2023-04-15T08:59:12.463Z,93384.00
2023-04-15T09:00:12.536Z,93386.00
2023-04-15T09:01:12.584Z,93386.00
2023-04-15T09:02:12.652Z,93382.00
2023-04-15T09:03:12.774Z,93384.00
2023-04-15T09:04:12.861Z,93380.00
2023-04-15T09:05:12.816Z,93382.00
2023-04-15T09:06:12.871Z,93380.00
2023-04-15T09:07:12.915Z,93380.00
2023-04-15T09:08:13.001Z,93378.00
2023-04-15T09:09:13.020Z,93376.00
2023-04-15T09:10:13.070Z,93376.00
2023-04-15T09:11:13.118Z,93376.00
2023-04-15T09:12:13.188Z,93374.00
2023-04-15T09:13:13.244Z,93374.00
2023-04-15T09:14:13.279Z,93374.00
2023-04-15T09:15:13.355Z,93372.00
2023-04-15T09:16:13.472Z,93370.00
2023-04-15T09:17:13.437Z,93372.00
2023-04-15T09:18:13.510Z,93370.00
2023-04-15T09:19:13.553Z,93368.00
2023-04-15T09:20:13.644Z,93368.00
2023-04-15T09:21:13.658Z,93366.00
2023-04-15T09:22:13.694Z,93366.00
2023-04-15T09:23:13.723Z,93364.00
2023-04-15T09:24:13.761Z,93364.00
2023-04-15T09:25:13.806Z,93364.00
2023-04-15T09:26:13.856Z,93362.00
2023-04-15T09:27:13.898Z,93362.00
2023-04-15T09:28:13.937Z,93358.00
2023-04-15T09:29:13.968Z,93351.00
2023-04-15T09:30:14.045Z,93358.00
2023-04-15T09:31:14.093Z,93351.00
2023-04-15T09:32:14.098Z,93358.00
2023-04-15T09:33:14.115Z,93351.00
2023-04-15T09:34:14.144Z,93349.00
2023-04-15T09:35:14.177Z,93351.00
2023-04-15T09:36:14.215Z,93349.00
2023-04-15T09:37:28.579Z,93351.00
2023-04-15T09:38:15.251Z,93358.00
2023-04-15T09:39:14.234Z,93351.00
2023-04-15T09:40:14.215Z,93349.00
2023-04-15T09:41:14.204Z,93351.00
2023-04-15T09:42:14.209Z,93347.00
2023-04-15T09:43:14.228Z,93351.00
2023-04-15T09:44:14.202Z,93345.00
2023-04-15T09:45:14.197Z,93347.00
2023-04-15T09:46:14.251Z,93345.00
2023-04-15T09:47:14.175Z,93345.00
2023-04-15T09:48:14.190Z,93347.00
2023-04-15T09:49:14.209Z,93345.00
2023-04-15T09:50:14.151Z,93345.00
2023-04-15T09:51:14.174Z,93343.00
2023-04-15T09:52:14.150Z,93337.00
2023-04-15T09:53:14.143Z,93341.00
2023-04-15T09:54:14.120Z,93341.00
2023-04-15T09:55:14.131Z,93337.00
2023-04-15T09:56:14.120Z,93337.00
2023-04-15T09:57:14.107Z,93335.00
2023-04-15T09:58:14.111Z,93339.00
2023-04-15T09:59:14.108Z,93335.00
2023-04-15T10:00:14.108Z,93335.00
2023-04-15T10:01:14.145Z,93335.00
2023-04-15T10:02:14.191Z,93333.00
2023-04-15T10:03:14.270Z,93335.00
2023-04-15T10:04:14.351Z,93333.00
2023-04-15T10:05:14.188Z,93329.00
2023-04-15T10:06:14.173Z,93331.00
2023-04-15T10:07:14.208Z,93329.00
2023-04-15T10:08:14.184Z,93329.00
2023-04-15T10:09:14.193Z,93327.00
2023-04-15T10:10:14.229Z,93325.00
2023-04-15T10:11:14.221Z,93331.00
2023-04-15T10:12:14.246Z,93325.00
2023-04-15T10:13:14.251Z,93323.00
2023-04-15T10:14:14.282Z,93325.00
2023-04-15T10:15:14.265Z,93327.00
2023-04-15T10:16:14.408Z,93327.00
2023-04-15T10:17:14.349Z,93331.00
2023-04-15T10:18:14.311Z,93331.00
2023-04-15T10:19:14.312Z,93335.00
2023-04-15T10:20:14.370Z,93333.00
2023-04-15T10:21:14.343Z,93333.00
2023-04-15T10:22:14.366Z,93331.00
2023-04-15T10:23:14.365Z,93329.00
2023-04-15T10:24:14.364Z,93327.00
2023-04-15T10:25:14.383Z,93333.00
2023-04-15T10:26:14.379Z,93335.00
2023-04-15T10:27:14.422Z,93335.00
2023-04-15T10:28:14.413Z,93335.00
2023-04-15T10:29:14.457Z,93337.00
2023-04-15T10:30:14.545Z,93343.00
2023-04-15T10:31:14.510Z,93339.00
2023-04-15T10:32:14.492Z,93335.00
2023-04-15T10:33:14.498Z,93335.00
2023-04-15T10:34:14.526Z,93335.00
2023-04-15T10:35:14.549Z,93333.00
2023-04-15T10:36:14.563Z,93333.00
2023-04-15T10:37:14.564Z,93337.00
2023-04-15T10:38:14.576Z,93341.00
2023-04-15T10:39:14.609Z,93343.00
2023-04-15T10:40:14.645Z,93343.00
2023-04-15T10:41:14.628Z,93341.00
2023-04-15T10:42:14.673Z,93347.00
2023-04-15T10:43:14.682Z,93341.00
2023-04-15T10:44:14.698Z,93343.00
2023-04-15T10:45:14.714Z,93343.00
2023-04-15T10:46:14.749Z,93343.00
2023-04-15T10:47:14.728Z,93337.00
2023-04-15T10:48:14.779Z,93339.00
2023-04-15T10:49:14.790Z,93339.00
2023-04-15T10:50:14.835Z,93339.00
2023-04-15T10:51:14.831Z,93341.00
2023-04-15T10:52:14.847Z,93343.00
2023-04-15T10:53:14.838Z,93343.00
2023-04-15T10:54:14.875Z,93343.00
2023-04-15T10:55:14.893Z,93347.00
2023-04-15T10:56:14.915Z,93347.00
2023-04-15T10:57:14.926Z,93345.00
2023-04-15T10:58:14.933Z,93349.00
2023-04-15T10:59:14.985Z,93358.00
2023-04-15T11:00:15.005Z,93349.00
2023-04-15T11:01:15.021Z,93347.00
2023-04-15T11:02:15.110Z,93347.00
2023-04-15T11:03:15.184Z,93347.00
2023-04-15T11:04:15.170Z,93347.00
2023-04-15T11:05:15.161Z,93345.00
2023-04-15T11:06:15.147Z,93347.00
2023-04-15T11:07:15.175Z,93349.00
2023-04-15T11:08:15.218Z,93347.00
2023-04-15T11:09:15.236Z,93351.00
2023-04-15T11:10:15.263Z,93351.00
2023-04-15T11:11:15.283Z,93358.00
2023-04-15T11:12:15.307Z,93358.00
2023-04-15T11:13:15.348Z,93349.00
2023-04-15T11:14:15.403Z,93349.00
2023-04-15T11:15:15.399Z,93349.00
2023-04-15T11:16:15.499Z,93343.00
2023-04-15T11:17:15.499Z,93343.00
2023-04-15T11:18:15.455Z,93345.00
2023-04-15T11:19:15.500Z,93345.00
2023-04-15T11:20:15.532Z,93345.00
2023-04-15T11:21:15.541Z,93343.00
2023-04-15T11:22:15.589Z,93347.00
2023-04-15T11:23:15.992Z,93345.00
2023-04-15T11:24:15.628Z,93345.00
2023-04-15T11:25:15.671Z,93345.00
2023-04-15T11:26:15.678Z,93347.00
2023-04-15T11:27:15.721Z,93345.00
2023-04-15T11:28:15.743Z,93345.00
2023-04-15T11:29:15.754Z,93345.00
2023-04-15T11:30:15.779Z,93343.00
2023-04-15T11:31:15.879Z,93345.00
2023-04-15T11:32:15.922Z,93343.00
2023-04-15T11:33:15.886Z,93345.00
2023-04-15T11:34:15.898Z,93347.00
2023-04-15T11:35:15.925Z,93345.00
2023-04-15T11:36:15.955Z,93347.00
2023-04-15T11:37:15.965Z,93345.00
2023-04-15T11:38:15.986Z,93343.00
2023-04-15T11:39:16.016Z,93349.00
2023-04-15T11:40:16.044Z,93347.00
2023-04-15T11:41:16.056Z,93349.00
2023-04-15T11:42:16.085Z,93358.00
2023-04-15T11:43:16.106Z,93358.00
2023-04-15T11:44:16.151Z,93362.00